עמוד ראשי
METAR-TAF:

METAR-TAF

שדות תעופה :

Red Dog Mine, אלסקה, ארצות הברית

קו רוחב: 68-01-56N, קו אורך: 162-53-57W, גובה: 295מטר

תצפית מזג אוויר נוכחית

הדו"ח נערך לפני 55דקות, בשעה 17:00 UTC
רוח 7קשר מכיוון דרום
טמפרטורת 4 צלסיוס
לחות 81%
לחץ 1025 hPa
ראות: 16.1קילומטר
מעונן בגובה 1600רגל

METAR: PADG 151700Z 19007KT 10SM OVC016 04/01 A3027

זמן: 09:55 (17:55 UTC)


TAF: חסר

תצפיות ותחזיות מזג אוויר לגבי יותר מ- 4,000 שדות תעופה ברחבי העולם. דוחות METAR ו- TAF.

התחנות הזמינות מסומנות בנקודות צהובות ואדומות על גבי המפה.

העבר את העכבר לנקודה הצבעונית על מנת לראות את שם התחנה.

לאחר מכן, לחץ כדי לראות את תוכן ואת תחזיות מזג האוויר.

כדי לשנות את המפה: לחץ על הכפתורים הירוקים עם הפלוס השחור כדי להתקרב; על הכפתור הירוק עם המקף כדי להתרחק; או בחיצים הירוקים למפות סמוכות.


METAR-TAF: